Time;durP1;ratioP1;P1;durP2;ratioP2;P2;SDS_P1;SDS_P2;PMS_P1;PMS_P2;Temp;Humidity;BMP_temperature;BMP_pressure;BME280_temperature;BME280_humidity;BME280_pressure;Samples;Min_cycle;Max_cycle;Signal;HPM_P1;HPM_P2
2021/09/11 00:01:02;;;;;;;100.60;43.72;;;17.60;99.90;;;;;;5052556;28;20141;-90
2021/09/11 00:03:28;;;;;;;104.47;46.05;;;17.60;99.90;;;;;;5082557;28;20100;-89
2021/09/11 00:05:54;;;;;;;176.90;53.25;;;17.50;99.90;;;;;;5084618;28;20131;-89
2021/09/11 00:08:19;;;;;;;128.48;41.22;;;17.50;99.90;;;;;;5073094;28;20110;-89
2021/09/11 00:10:45;;;;;;;406.83;62.63;;;17.50;99.90;;;;;;5083054;28;20058;-89
2021/09/11 00:13:11;;;;;;;480.00;52.22;;;17.50;99.90;;;;;;5066566;28;20052;-88
2021/09/11 00:15:37;;;;;;;483.65;47.08;;;17.50;99.90;;;;;;5088745;28;20048;-88
2021/09/11 00:18:04;;;;;;;428.90;46.20;;;17.50;99.90;;;;;;5087734;28;20093;-88
2021/09/11 00:20:30;;;;;;;399.67;44.53;;;17.40;99.90;;;;;;5061852;28;20056;-87
2021/09/11 00:23:00;;;;;;;689.70;55.85;;;17.40;99.90;;;;;;5075527;28;20036;-88
2021/09/11 00:25:27;;;;;;;418.60;42.47;;;17.40;99.90;;;;;;5060727;28;20048;-89
2021/09/11 00:27:53;;;;;;;356.73;43.92;;;17.40;99.90;;;;;;5087974;28;20151;-89
2021/09/11 00:30:19;;;;;;;492.27;48.13;;;17.50;99.90;;;;;;5088535;28;20135;-88
2021/09/11 00:32:44;;;;;;;520.25;53.00;;;17.50;99.90;;;;;;5077627;28;20037;-89
2021/09/11 00:35:15;;;;;;;358.23;48.47;;;17.50;99.90;;;;;;5059963;28;20185;-90
2021/09/11 00:37:41;;;;;;;335.83;47.17;;;17.50;99.90;;;;;;5077432;28;20503;-89
2021/09/11 00:40:09;;;;;;;284.55;47.08;;;17.60;99.90;;;;;;5033776;28;20105;-90
2021/09/11 00:42:35;;;;;;;246.38;48.65;;;17.60;99.90;;;;;;5075817;28;20040;-89
2021/09/11 00:45:01;;;;;;;240.77;55.03;;;17.60;99.90;;;;;;5072001;28;20150;-90
2021/09/11 00:47:27;;;;;;;462.13;70.28;;;17.60;99.90;;;;;;5067567;28;20078;-89
2021/09/11 00:49:53;;;;;;;343.27;61.85;;;17.60;99.90;;;;;;5071334;28;20410;-89
2021/09/11 00:52:21;;;;;;;258.20;51.72;;;17.60;99.90;;;;;;5104444;28;20102;-89
2021/09/11 00:54:47;;;;;;;177.55;44.65;;;17.60;99.90;;;;;;5052870;28;20048;-89
2021/09/11 00:57:13;;;;;;;225.77;51.20;;;17.60;99.90;;;;;;5089880;28;20113;-89
2021/09/11 00:59:39;;;;;;;383.77;59.58;;;17.50;99.90;;;;;;5089799;28;20435;-89
2021/09/11 01:02:04;;;;;;;221.38;51.33;;;17.60;99.90;;;;;;5070246;28;20040;-89
2021/09/11 01:04:30;;;;;;;227.95;54.75;;;17.50;99.90;;;;;;5104961;28;20047;-88
2021/09/11 01:06:58;;;;;;;136.40;51.47;;;17.50;99.90;;;;;;5103190;28;20444;-90
2021/09/11 01:09:24;;;;;;;101.75;45.30;;;17.60;99.90;;;;;;5059223;28;20131;-87
2021/09/11 01:11:51;;;;;;;101.85;46.05;;;17.50;99.90;;;;;;5074900;28;20075;-89
2021/09/11 01:14:17;;;;;;;104.03;45.67;;;17.60;99.90;;;;;;5124814;28;20039;-88
2021/09/11 01:16:43;;;;;;;91.68;44.10;;;17.60;99.90;;;;;;5108582;28;20051;-88
2021/09/11 01:19:09;;;;;;;167.18;57.13;;;17.60;99.90;;;;;;5094814;28;20040;-89
2021/09/11 01:21:35;;;;;;;111.28;48.95;;;17.60;99.90;;;;;;5063240;28;20048;-88
2021/09/11 01:24:01;;;;;;;93.40;44.08;;;17.60;99.90;;;;;;5107732;28;20391;-88
2021/09/11 01:26:26;;;;;;;105.28;46.50;;;17.60;99.90;;;;;;5110685;28;20039;-88
2021/09/11 01:28:52;;;;;;;111.13;48.85;;;17.60;99.90;;;;;;5041865;28;20045;-89
2021/09/11 01:31:18;;;;;;;104.22;45.05;;;17.60;99.90;;;;;;5101058;28;20042;-87
2021/09/11 01:33:43;;;;;;;89.68;43.10;;;17.60;99.90;;;;;;5074266;28;20054;-88
2021/09/11 01:36:09;;;;;;;112.07;46.33;;;17.60;99.90;;;;;;5107550;28;20131;-88
2021/09/11 01:38:35;;;;;;;86.32;42.88;;;17.60;99.90;;;;;;5088725;28;20106;-88
2021/09/11 01:41:01;;;;;;;110.10;44.63;;;17.60;99.90;;;;;;5097649;28;20083;-89
2021/09/11 01:43:32;;;;;;;110.28;47.42;;;17.60;99.90;;;;;;5073970;28;20077;-88
2021/09/11 01:45:58;;;;;;;124.57;48.00;;;17.60;99.90;;;;;;5091105;28;20118;-88
2021/09/11 01:48:25;;;;;;;130.55;49.45;;;17.60;99.90;;;;;;5096365;28;20131;-88
2021/09/11 01:50:50;;;;;;;105.03;44.05;;;17.60;99.90;;;;;;5089247;28;20046;-89
2021/09/11 01:53:16;;;;;;;112.35;45.65;;;17.50;99.90;;;;;;5070118;28;20484;-88
2021/09/11 01:55:42;;;;;;;86.88;40.53;;;17.50;99.90;;;;;;5090633;28;20474;-88
2021/09/11 01:58:08;;;;;;;157.93;53.83;;;17.40;99.90;;;;;;5054203;28;20056;-90
2021/09/11 02:00:33;;;;;;;98.28;41.75;;;17.40;99.90;;;;;;5091527;28;20428;-89
2021/09/11 02:02:59;;;;;;;104.55;44.78;;;17.40;99.90;;;;;;5084239;28;20044;-90
2021/09/11 02:05:25;;;;;;;93.45;42.40;;;17.30;99.90;;;;;;5090775;28;20085;-89
2021/09/11 02:07:50;;;;;;;127.70;49.20;;;17.30;99.90;;;;;;5090726;28;20530;-90
2021/09/11 02:10:19;;;;;;;152.38;50.05;;;17.20;99.90;;;;;;5069921;28;20052;-88
2021/09/11 02:12:45;;;;;;;181.02;55.47;;;17.20;99.90;;;;;;5068583;28;20101;-88
2021/09/11 02:15:11;;;;;;;110.07;46.03;;;17.20;99.90;;;;;;5081187;28;20059;-88
2021/09/11 02:17:38;;;;;;;127.00;47.25;;;17.20;99.90;;;;;;5073923;28;20035;-88
2021/09/11 02:20:05;;;;;;;94.43;42.08;;;17.20;99.90;;;;;;5082847;28;20083;-89
2021/09/11 02:22:31;;;;;;;89.88;41.45;;;17.30;99.90;;;;;;5072917;28;20051;-88
2021/09/11 02:24:56;;;;;;;85.93;39.25;;;17.30;99.90;;;;;;5090705;28;20040;-87
2021/09/11 02:27:22;;;;;;;63.65;31.75;;;17.30;99.90;;;;;;5073215;28;20123;-88
2021/09/11 02:29:48;;;;;;;56.33;30.00;;;17.40;99.90;;;;;;5065317;28;20047;-88
2021/09/11 02:32:14;;;;;;;58.50;28.83;;;17.40;99.90;;;;;;5060387;28;20048;-88
2021/09/11 02:34:40;;;;;;;66.32;30.58;;;17.30;99.90;;;;;;5070491;28;20050;-89
2021/09/11 02:37:06;;;;;;;44.75;25.38;;;17.30;99.90;;;;;;5090091;28;20127;-89
2021/09/11 02:39:32;;;;;;;39.90;21.98;;;17.30;99.90;;;;;;5090597;28;20044;-88
2021/09/11 02:41:58;;;;;;;36.25;21.95;;;17.20;99.90;;;;;;5057932;28;20067;-88
2021/09/11 02:44:24;;;;;;;35.47;20.15;;;17.20;99.90;;;;;;5082730;28;20177;-88
2021/09/11 02:46:50;;;;;;;37.45;19.98;;;17.20;99.90;;;;;;5090816;28;20040;-88
2021/09/11 02:49:15;;;;;;;41.13;23.00;;;17.20;99.90;;;;;;5088831;28;20059;-89
2021/09/11 02:51:41;;;;;;;43.70;24.85;;;17.20;99.90;;;;;;5056422;28;20059;-88
2021/09/11 02:54:07;;;;;;;38.40;21.88;;;17.20;99.90;;;;;;5071138;28;20071;-88
2021/09/11 02:56:32;;;;;;;38.67;22.83;;;17.20;99.90;;;;;;5064016;28;20040;-88
2021/09/11 02:58:58;;;;;;;49.97;24.30;;;17.20;99.90;;;;;;5090280;28;20116;-88
2021/09/11 03:01:24;;;;;;;40.53;22.17;;;17.20;99.90;;;;;;5076771;28;20044;-87
2021/09/11 03:03:51;;;;;;;47.17;24.35;;;17.20;99.90;;;;;;5075587;28;20047;-87
2021/09/11 03:06:16;;;;;;;66.32;30.42;;;17.20;99.90;;;;;;5089160;28;20094;-86
2021/09/11 03:08:42;;;;;;;54.22;27.63;;;17.20;99.90;;;;;;5089542;28;20071;-86
2021/09/11 03:11:08;;;;;;;61.88;30.02;;;17.20;99.90;;;;;;5074089;28;20435;-87
2021/09/11 03:13:34;;;;;;;71.32;32.92;;;17.20;99.90;;;;;;5072648;28;20055;-86
2021/09/11 03:16:00;;;;;;;73.85;33.78;;;17.20;99.90;;;;;;5089152;28;20491;-86
2021/09/11 03:18:25;;;;;;;71.40;33.05;;;17.20;99.90;;;;;;5081077;28;20032;-86
2021/09/11 03:20:51;;;;;;;77.35;35.95;;;17.30;99.90;;;;;;5086044;28;20059;-87
2021/09/11 03:23:17;;;;;;;78.53;34.55;;;17.20;99.90;;;;;;5080505;28;20047;-89
2021/09/11 03:25:43;;;;;;;78.55;33.97;;;17.20;99.90;;;;;;5066355;28;20114;-90
2021/09/11 03:28:09;;;;;;;102.38;40.22;;;17.30;99.90;;;;;;5055851;28;20185;-90
2021/09/11 03:30:35;;;;;;;76.05;34.15;;;17.30;99.90;;;;;;5064512;28;20052;-90
2021/09/11 03:33:01;;;;;;;79.05;34.35;;;17.30;99.90;;;;;;5071016;28;20051;-90
2021/09/11 03:35:28;;;;;;;73.47;34.28;;;17.20;99.90;;;;;;5062282;28;20146;-90
2021/09/11 03:37:54;;;;;;;80.03;36.40;;;17.20;99.90;;;;;;5085136;28;20549;-90
2021/09/11 03:40:20;;;;;;;73.75;34.58;;;17.20;99.90;;;;;;5079745;28;20134;-88
2021/09/11 03:42:46;;;;;;;73.22;35.55;;;17.30;99.90;;;;;;5089874;28;20769;-89
2021/09/11 03:45:12;;;;;;;78.53;35.78;;;17.30;99.90;;;;;;5044972;28;20045;-90
2021/09/11 03:47:38;;;;;;;70.82;34.45;;;17.30;99.90;;;;;;5074674;28;20090;-89
2021/09/11 03:50:06;;;;;;;75.43;36.13;;;17.20;99.90;;;;;;5076636;28;20556;-89
2021/09/11 03:52:32;;;;;;;82.47;38.03;;;17.30;99.90;;;;;;5074950;28;20051;-88
2021/09/11 03:54:58;;;;;;;77.57;34.70;;;17.30;99.90;;;;;;5059013;28;20047;-89
2021/09/11 03:57:24;;;;;;;68.82;34.42;;;17.30;99.90;;;;;;5080535;28;20039;-92
2021/09/11 03:59:49;;;;;;;84.15;37.58;;;17.30;99.90;;;;;;5104782;28;20039;-87
2021/09/11 04:02:15;;;;;;;84.80;37.88;;;17.30;99.90;;;;;;5085213;28;20051;-87
2021/09/11 04:04:41;;;;;;;68.97;35.42;;;17.30;99.90;;;;;;5117131;27;20040;-89
2021/09/11 04:07:06;;;;;;;78.32;36.65;;;17.30;99.90;;;;;;5088824;28;20058;-89
2021/09/11 04:09:32;;;;;;;81.43;38.33;;;17.30;99.90;;;;;;5084635;28;20040;-90
2021/09/11 04:11:58;;;;;;;80.07;37.53;;;17.30;99.90;;;;;;5108747;27;20049;-89
2021/09/11 04:14:24;;;;;;;74.20;37.15;;;17.30;99.90;;;;;;5087470;28;20039;-89
2021/09/11 04:16:49;;;;;;;66.60;34.88;;;17.30;99.90;;;;;;5090395;28;20044;-90
2021/09/11 04:19:15;;;;;;;70.20;35.30;;;17.30;99.90;;;;;;5070784;28;20130;-90
2021/09/11 04:21:41;;;;;;;82.45;34.25;;;17.30;99.90;;;;;;5105670;28;20471;-90
2021/09/11 04:24:07;;;;;;;73.60;37.60;;;17.30;99.90;;;;;;5070979;28;20052;-90
2021/09/11 04:26:34;;;;;;;72.82;35.10;;;17.30;99.90;;;;;;5071285;28;20140;-90
2021/09/11 04:29:00;;;;;;;64.32;35.25;;;17.30;99.90;;;;;;5088218;28;20080;-90
2021/09/11 04:31:25;;;;;;;74.20;36.05;;;17.30;99.90;;;;;;5082068;28;20508;-89
2021/09/11 04:33:51;;;;;;;72.95;36.05;;;17.30;99.90;;;;;;5054650;28;20063;-89
2021/09/11 04:36:17;;;;;;;66.72;35.22;;;17.30;99.90;;;;;;5076664;28;20044;-89
2021/09/11 04:38:42;;;;;;;71.03;35.55;;;17.20;99.90;;;;;;5105334;28;20222;-88
2021/09/11 04:41:08;;;;;;;67.38;35.28;;;17.20;99.90;;;;;;5084721;28;20048;-89
2021/09/11 04:43:34;;;;;;;72.05;35.10;;;17.30;99.90;;;;;;5070314;28;20048;-89
2021/09/11 04:46:01;;;;;;;74.35;35.47;;;17.30;99.90;;;;;;5071766;28;20127;-89
2021/09/11 04:48:26;;;;;;;64.35;33.67;;;17.30;99.90;;;;;;5056152;28;20159;-90
2021/09/11 04:50:52;;;;;;;67.10;34.25;;;17.20;99.90;;;;;;5102247;28;20044;-89
2021/09/11 04:53:18;;;;;;;68.95;33.88;;;17.20;99.90;;;;;;5050604;28;20044;-89
2021/09/11 04:55:44;;;;;;;60.35;33.20;;;17.20;99.90;;;;;;5060129;28;20075;-89
2021/09/11 04:58:09;;;;;;;70.47;33.75;;;17.20;99.90;;;;;;5064949;28;20799;-88
2021/09/11 05:00:35;;;;;;;64.70;32.38;;;17.20;99.90;;;;;;5104096;28;20091;-89
2021/09/11 05:03:01;;;;;;;67.03;33.70;;;17.20;99.90;;;;;;5052723;28;20049;-89
2021/09/11 05:05:27;;;;;;;63.83;32.03;;;17.20;99.90;;;;;;5067191;28;20111;-90
2021/09/11 05:07:59;;;;;;;72.70;33.83;;;17.20;99.90;;;;;;5068060;28;20056;-90
2021/09/11 05:10:26;;;;;;;63.28;33.60;;;17.30;99.90;;;;;;5050177;28;20097;-90
2021/09/11 05:12:52;;;;;;;64.43;34.05;;;17.20;99.90;;;;;;5087949;28;20080;-90
2021/09/11 05:15:18;;;;;;;65.53;33.97;;;17.30;99.90;;;;;;5075690;28;20067;-90
2021/09/11 05:17:45;;;;;;;66.28;32.40;;;17.30;99.90;;;;;;5086158;28;20040;-90
2021/09/11 05:20:11;;;;;;;65.55;31.73;;;17.30;99.90;;;;;;5087929;28;20863;-88
2021/09/11 05:22:37;;;;;;;57.50;29.45;;;17.20;99.90;;;;;;5068613;28;20051;-89
2021/09/11 05:25:06;;;;;;;66.85;30.33;;;17.30;99.90;;;;;;5059524;28;20804;-90
2021/09/11 05:27:32;;;;;;;62.50;28.80;;;17.20;99.90;;;;;;5104018;28;20044;-89
2021/09/11 05:29:58;;;;;;;62.22;27.08;;;17.20;99.90;;;;;;5072065;28;20088;-90
2021/09/11 05:32:23;;;;;;;55.47;28.52;;;17.20;99.90;;;;;;5073168;28;20048;-90
2021/09/11 05:34:49;;;;;;;49.20;26.05;;;17.20;99.90;;;;;;5044749;28;20040;-88
2021/09/11 05:37:15;;;;;;;52.08;26.95;;;17.20;99.90;;;;;;5041656;28;20051;-89
2021/09/11 05:39:40;;;;;;;45.00;24.77;;;17.20;99.90;;;;;;5057454;28;20474;-88
2021/09/11 05:42:07;;;;;;;48.38;23.88;;;17.10;99.90;;;;;;5058342;28;20036;-89
2021/09/11 05:44:33;;;;;;;48.03;23.02;;;17.10;99.90;;;;;;5062634;28;20044;-88
2021/09/11 05:46:59;;;;;;;38.22;21.52;;;17.10;99.90;;;;;;5068398;28;20060;-89
2021/09/11 05:49:27;;;;;;;43.13;21.17;;;17.10;99.90;;;;;;5100169;28;20052;-88
2021/09/11 05:51:54;;;;;;;67.55;21.25;;;17.10;99.90;;;;;;5074937;28;20469;-89
2021/09/11 05:54:20;;;;;;;39.20;20.25;;;17.10;99.90;;;;;;5083778;28;20594;-89
2021/09/11 05:56:46;;;;;;;35.92;17.48;;;17.10;99.90;;;;;;5057348;28;20126;-88
2021/09/11 05:59:11;;;;;;;32.72;16.80;;;17.10;99.90;;;;;;5074762;28;20051;-89
2021/09/11 06:01:39;;;;;;;32.03;17.48;;;17.10;99.90;;;;;;5059068;28;20093;-90
2021/09/11 06:04:05;;;;;;;27.35;15.85;;;17.10;99.90;;;;;;5071149;28;20044;-90
2021/09/11 06:06:31;;;;;;;41.70;17.67;;;17.10;99.90;;;;;;5070395;28;20052;-90
2021/09/11 06:08:57;;;;;;;39.10;16.67;;;17.10;99.90;;;;;;5037271;28;20048;-90
2021/09/11 06:11:23;;;;;;;35.17;16.77;;;17.10;99.90;;;;;;5061080;28;20491;-88
2021/09/11 06:13:48;;;;;;;36.35;15.93;;;17.10;99.90;;;;;;5065104;28;20040;-89
2021/09/11 06:16:14;;;;;;;32.03;16.08;;;17.10;99.90;;;;;;5061530;28;20593;-91
2021/09/11 06:18:41;;;;;;;32.72;16.45;;;17.10;99.90;;;;;;5077405;28;20055;-91
2021/09/11 06:21:06;;;;;;;29.67;16.38;;;17.10;99.90;;;;;;5053650;28;20059;-92
2021/09/11 06:23:32;;;;;;;34.92;16.27;;;17.10;99.90;;;;;;5053199;28;20048;-90
2021/09/11 06:25:58;;;;;;;27.85;16.67;;;17.10;99.90;;;;;;5053728;28;20055;-91
2021/09/11 06:28:25;;;;;;;36.80;16.67;;;17.10;99.90;;;;;;5053139;28;20182;-91
2021/09/11 06:30:51;;;;;;;30.00;17.08;;;17.20;99.90;;;;;;5053991;28;20049;-91
2021/09/11 06:33:17;;;;;;;42.90;18.33;;;17.20;99.90;;;;;;5053956;28;20389;-92
2021/09/11 06:35:43;;;;;;;36.17;16.73;;;17.10;99.90;;;;;;5069630;28;20483;-91
2021/09/11 06:38:08;;;;;;;33.20;17.48;;;17.10;99.90;;;;;;5070714;28;20479;-92
2021/09/11 06:40:34;;;;;;;27.75;16.42;;;17.10;99.90;;;;;;5034659;28;20045;-91
2021/09/11 06:43:00;;;;;;;31.92;18.17;;;17.10;99.90;;;;;;5055567;28;20054;-96
2021/09/11 06:45:26;;;;;;;35.33;17.23;;;17.20;99.90;;;;;;5107137;28;20051;-90
2021/09/11 06:47:51;;;;;;;38.90;19.13;;;17.20;99.90;;;;;;5071203;28;20097;-92
2021/09/11 06:50:17;;;;;;;34.85;18.27;;;17.20;99.90;;;;;;5069343;28;20105;-95
2021/09/11 06:52:43;;;;;;;38.35;18.90;;;17.20;99.90;;;;;;5067782;28;20352;-92
2021/09/11 06:55:10;;;;;;;38.85;18.85;;;17.30;99.90;;;;;;5094992;28;20051;-92
2021/09/11 06:57:35;;;;;;;39.30;19.13;;;17.30;99.90;;;;;;5110178;28;20055;-92
2021/09/11 07:00:03;;;;;;;45.47;18.98;;;17.20;99.90;;;;;;5084935;28;20056;-93
2021/09/11 07:02:28;;;;;;;38.22;19.20;;;17.30;99.90;;;;;;5072241;28;20048;-90
2021/09/11 07:04:54;;;;;;;34.20;19.77;;;17.30;99.90;;;;;;5090102;28;20043;-93
2021/09/11 07:07:20;;;;;;;39.10;19.90;;;17.30;99.90;;;;;;5090032;28;20043;-91
2021/09/11 07:09:45;;;;;;;40.35;20.55;;;17.30;99.90;;;;;;5072130;28;20098;-94
2021/09/11 07:12:11;;;;;;;40.35;21.60;;;17.40;99.90;;;;;;5070739;28;20055;-91
2021/09/11 07:14:37;;;;;;;44.88;22.80;;;17.40;99.90;;;;;;5091791;28;20046;-94
2021/09/11 07:17:03;;;;;;;48.25;22.30;;;17.40;99.90;;;;;;5110726;28;20077;-92
2021/09/11 07:19:29;;;;;;;39.47;22.50;;;17.40;99.90;;;;;;5097408;28;20039;-90
2021/09/11 07:21:56;;;;;;;44.35;22.08;;;17.40;99.90;;;;;;5075783;28;20063;-93
2021/09/11 07:24:22;;;;;;;34.03;22.02;;;17.40;99.90;;;;;;5125749;27;20051;-92
2021/09/11 07:26:48;;;;;;;52.42;23.55;;;17.50;99.90;;;;;;5091100;28;20565;-93
2021/09/11 07:29:14;;;;;;;45.47;22.58;;;17.50;99.90;;;;;;5108383;28;20043;-93
2021/09/11 07:31:40;;;;;;;42.35;22.75;;;17.50;99.90;;;;;;5083124;28;20076;-93
2021/09/11 07:34:06;;;;;;;46.58;22.23;;;17.60;99.90;;;;;;5072288;28;20047;-94
2021/09/11 07:36:32;;;;;;;58.80;24.17;;;17.60;99.90;;;;;;5079211;28;20067;-90
2021/09/11 07:38:58;;;;;;;37.33;22.85;;;17.60;99.90;;;;;;5106710;28;20476;-95
2021/09/11 07:41:24;;;;;;;44.13;22.73;;;17.60;99.90;;;;;;5058865;28;20047;-94
2021/09/11 07:43:50;;;;;;;45.92;22.63;;;17.60;99.90;;;;;;5066054;28;20074;-93
2021/09/11 07:46:15;;;;;;;37.15;21.73;;;17.60;99.90;;;;;;5099637;28;20050;-93
2021/09/11 07:48:41;;;;;;;52.10;23.02;;;17.60;99.90;;;;;;5088138;28;20534;-94
2021/09/11 07:51:07;;;;;;;45.35;23.13;;;17.60;99.90;;;;;;5106594;28;20051;-92
2021/09/11 07:53:33;;;;;;;43.33;22.95;;;17.70;99.90;;;;;;5089186;28;20097;-89
2021/09/11 07:55:59;;;;;;;34.15;20.48;;;17.70;99.90;;;;;;5080711;28;20043;-93
2021/09/11 07:58:26;;;;;;;36.15;20.52;;;17.80;99.90;;;;;;5090884;28;20131;-93
2021/09/11 08:00:53;;;;;;;40.53;21.88;;;17.80;99.90;;;;;;5098791;28;20044;-93
2021/09/11 08:03:19;;;;;;;38.85;22.17;;;17.80;99.90;;;;;;5071948;28;20055;-92
2021/09/11 08:05:45;;;;;;;43.83;22.67;;;17.80;99.90;;;;;;5099276;28;20023;-96
2021/09/11 08:08:10;;;;;;;38.25;21.45;;;17.90;99.90;;;;;;5061676;28;20040;-93
2021/09/11 08:10:36;;;;;;;38.80;21.08;;;17.90;99.90;;;;;;5063759;28;20047;-96
2021/09/11 08:13:02;;;;;;;35.92;21.00;;;17.90;99.90;;;;;;5135970;27;20131;-96
2021/09/11 08:15:28;;;;;;;33.30;20.67;;;18.00;99.90;;;;;;5127793;27;20437;-96
2021/09/11 08:17:55;;;;;;;39.42;21.83;;;18.00;99.90;;;;;;5081080;28;20047;-91
2021/09/11 08:20:21;;;;;;;38.97;21.45;;;18.10;99.90;;;;;;5078695;28;20039;-96
2021/09/11 08:22:47;;;;;;;32.88;20.00;;;18.10;99.90;;;;;;5068745;28;20055;-96
2021/09/11 08:25:13;;;;;;;42.67;20.15;;;18.20;99.90;;;;;;5077032;28;20036;-95
2021/09/11 08:27:39;;;;;;;34.20;20.85;;;18.30;99.90;;;;;;5080733;28;20040;-96
2021/09/11 08:30:06;;;;;;;34.03;20.00;;;18.40;99.90;;;;;;5088595;28;20144;-95
2021/09/11 08:32:35;;;;;;;34.15;20.00;;;18.40;99.90;;;;;;5050606;28;20044;-91
2021/09/11 08:35:01;;;;;;;36.57;20.23;;;18.50;99.90;;;;;;5115767;28;20036;-96
2021/09/11 08:37:27;;;;;;;30.13;19.17;;;18.60;99.90;;;;;;5083704;28;20127;-96
2021/09/11 08:39:52;;;;;;;32.13;19.40;;;18.70;99.90;;;;;;5084244;28;20043;-96
2021/09/11 08:42:20;;;;;;;34.97;20.52;;;18.90;99.90;;;;;;5082171;28;20050;-94
2021/09/11 08:44:46;;;;;;;32.67;19.45;;;19.00;99.90;;;;;;5073547;28;20051;-96
2021/09/11 08:47:12;;;;;;;33.08;20.77;;;19.10;99.90;;;;;;5077232;28;20085;-94
2021/09/11 08:49:38;;;;;;;33.72;19.75;;;19.20;99.90;;;;;;5088405;28;20127;-91
2021/09/11 08:52:07;;;;;;;33.75;19.73;;;19.30;99.90;;;;;;5107805;28;20060;-94
2021/09/11 08:54:34;;;;;;;34.33;19.13;;;19.50;99.90;;;;;;5077225;28;20055;-96
2021/09/11 08:57:24;;;;;;;31.23;19.08;;;19.50;99.90;;;;;;5074894;28;20100;-96
2021/09/11 08:59:51;;;;;;;32.45;19.63;;;19.60;99.90;;;;;;5064033;28;20069;-96
2021/09/11 09:02:19;;;;;;;31.90;20.27;;;19.60;99.90;;;;;;5068425;28;20066;-96
2021/09/11 09:04:59;;;;;;;40.05;22.48;;;19.60;99.90;;;;;;5082914;28;20097;-96
2021/09/11 09:07:35;;;;;;;35.95;19.77;;;19.50;99.90;;;;;;5073871;28;20080;-96
2021/09/11 09:10:22;;;;;;;34.17;19.40;;;19.50;99.90;;;;;;5059317;28;20048;-95
2021/09/11 09:12:51;;;;;;;34.88;19.83;;;19.50;99.90;;;;;;5095382;28;20052;-96
2021/09/11 09:15:20;;;;;;;35.60;19.17;;;19.40;99.90;;;;;;5080219;28;20051;-95
2021/09/11 09:17:54;;;;;;;30.92;18.35;;;19.40;99.90;;;;;;5096541;28;20103;-96
2021/09/11 09:20:24;;;;;;;28.98;17.92;;;19.40;99.90;;;;;;5097416;28;20055;-96
2021/09/11 09:22:57;;;;;;;26.52;18.05;;;19.50;99.90;;;;;;5065695;28;20547;-96
2021/09/11 09:25:28;;;;;;;33.55;19.10;;;19.50;99.90;;;;;;5114820;28;20051;-96
2021/09/11 09:28:09;;;;;;;30.63;17.08;;;19.50;99.90;;;;;;5096577;28;20043;-96
2021/09/11 09:30:49;;;;;;;32.30;18.58;;;19.50;99.90;;;;;;5097415;28;20043;-96
2021/09/11 09:33:21;;;;;;;29.60;16.85;;;19.50;99.90;;;;;;5081660;28;20077;-96
2021/09/11 09:35:48;;;;;;;29.33;16.30;;;19.50;99.90;;;;;;5126456;27;20420;-95
2021/09/11 09:38:14;;;;;;;28.92;17.42;;;19.50;99.90;;;;;;5077768;28;20502;-93
2021/09/11 09:40:42;;;;;;;32.38;18.10;;;19.50;99.90;;;;;;5095842;28;20059;-90
2021/09/11 09:43:10;;;;;;;29.25;16.70;;;19.50;99.90;;;;;;5129742;27;20066;-92
2021/09/11 09:45:37;;;;;;;29.63;18.08;;;19.50;99.90;;;;;;5095463;28;20051;-95
2021/09/11 09:48:08;;;;;;;30.38;17.60;;;19.60;99.90;;;;;;5128972;27;20043;-92
2021/09/11 09:50:37;;;;;;;25.13;16.75;;;19.60;99.90;;;;;;5091030;28;20071;-94
2021/09/11 09:53:04;;;;;;;28.05;17.58;;;19.70;99.90;;;;;;5072344;28;20843;-93
2021/09/11 09:55:30;;;;;;;26.23;17.13;;;19.80;99.90;;;;;;5072328;28;20125;-93
2021/09/11 09:57:56;;;;;;;22.00;16.15;;;19.90;99.90;;;;;;5093173;28;20071;-93
2021/09/11 10:00:23;;;;;;;27.27;15.93;;;19.90;99.90;;;;;;5093318;28;20082;-95
2021/09/11 10:02:49;;;;;;;27.67;17.60;;;19.90;99.90;;;;;;5100890;28;20051;-96
2021/09/11 10:05:18;;;;;;;28.38;17.45;;;20.00;99.90;;;;;;5078149;28;20497;-93
2021/09/11 10:08:00;;;;;;;25.38;16.13;;;20.00;99.90;;;;;;5094582;28;20043;-93
2021/09/11 10:10:39;;;;;;;25.17;15.65;;;20.00;99.90;;;;;;5081372;28;20040;-95
2021/09/11 10:13:09;;;;;;;21.35;15.20;;;20.10;99.90;;;;;;5070611;28;20052;-95
2021/09/11 10:15:36;;;;;;;30.27;15.55;;;20.10;99.90;;;;;;5087875;28;20549;-92
2021/09/11 10:18:23;;;;;;;23.10;16.17;;;20.00;99.90;;;;;;5067721;28;20621;-95
2021/09/11 10:21:28;;;;;;;29.77;15.75;;;20.10;99.90;;;;;;5061236;28;20627;-95
2021/09/11 10:23:57;;;;;;;19.67;15.45;;;20.10;99.90;;;;;;5071750;28;20072;-94
2021/09/11 10:26:45;;;;;;;24.17;15.98;;;20.10;99.90;;;;;;5107643;28;20127;-94
2021/09/11 10:29:33;;;;;;;23.30;14.95;;;20.10;99.90;;;;;;5074115;28;20075;-93
2021/09/11 10:32:12;;;;;;;27.33;16.63;;;20.10;99.90;;;;;;5063954;28;20048;-94
2021/09/11 10:35:03;;;;;;;28.30;15.45;;;20.10;99.90;;;;;;5047919;28;20134;-94
2021/09/11 10:37:37;;;;;;;25.25;17.95;;;20.10;99.90;;;;;;5068706;28;20044;-95
2021/09/11 10:40:36;;;;;;;26.58;17.55;;;20.10;99.90;;;;;;5088102;28;20554;-94
2021/09/11 10:43:09;;;;;;;37.95;19.90;;;20.00;99.90;;;;;;5040929;28;20056;-94
2021/09/11 10:45:54;;;;;;;27.08;18.00;;;19.80;99.90;;;;;;5071410;28;20051;-93
2021/09/11 10:48:44;;;;;;;31.23;18.02;;;19.70;99.90;;;;;;5109730;27;20036;-94
2021/09/11 10:51:12;;;;;;;32.70;18.83;;;19.50;99.90;;;;;;5097417;28;20063;-93
2021/09/11 10:53:39;;;;;;;35.70;17.95;;;19.40;99.90;;;;;;5070597;28;20133;-92
2021/09/11 10:56:28;;;;;;;29.48;18.10;;;19.40;99.90;;;;;;5099465;28;20036;-93
2021/09/11 10:59:33;;;;;;;30.65;18.98;;;19.20;99.90;;;;;;5084644;28;20118;-93
2021/09/11 11:02:12;;;;;;;35.28;19.40;;;19.10;99.90;;;;;;4999518;28;20049;-92
2021/09/11 11:05:04;;;;;;;36.83;20.53;;;19.10;99.90;;;;;;5062343;28;20043;-93
2021/09/11 11:07:32;;;;;;;30.65;19.52;;;19.20;99.90;;;;;;5071156;28;20048;-94
2021/09/11 11:10:07;;;;;;;33.10;18.30;;;19.20;99.90;;;;;;5055175;28;20047;-93
2021/09/11 11:12:44;;;;;;;27.95;18.30;;;19.30;99.90;;;;;;5085353;28;20040;-94
2021/09/11 11:15:11;;;;;;;35.63;18.40;;;19.40;99.90;;;;;;5047448;28;20479;-94
2021/09/11 11:17:42;;;;;;;24.55;17.65;;;19.50;99.90;;;;;;5083963;28;20059;-95
2021/09/11 11:20:09;;;;;;;29.33;18.63;;;19.60;99.90;;;;;;5071052;28;20044;-94
2021/09/11 11:22:40;;;;;;;40.97;18.15;;;19.80;99.90;;;;;;5059850;28;20041;-95
2021/09/11 11:25:09;;;;;;;26.70;17.67;;;19.90;99.90;;;;;;5073486;28;20075;-94
2021/09/11 11:27:36;;;;;;;26.33;17.58;;;19.90;99.90;;;;;;5066189;28;20051;-95
2021/09/11 11:30:04;;;;;;;32.95;17.60;;;20.00;99.90;;;;;;5062643;28;20048;-96
2021/09/11 11:32:32;;;;;;;29.00;17.20;;;20.00;99.90;;;;;;5101870;28;20048;-95
2021/09/11 11:34:59;;;;;;;28.27;16.63;;;20.00;99.90;;;;;;5083037;28;20051;-95
2021/09/11 11:37:28;;;;;;;26.30;15.55;;;20.00;99.90;;;;;;5054025;28;20040;-92
2021/09/11 11:39:54;;;;;;;29.88;15.10;;;20.00;99.90;;;;;;5072292;28;20039;-91
2021/09/11 11:42:23;;;;;;;32.80;15.52;;;19.90;99.90;;;;;;5072910;28;20044;-93
2021/09/11 11:44:54;;;;;;;26.33;15.43;;;19.90;99.90;;;;;;5063671;28;20101;-92
2021/09/11 11:47:31;;;;;;;28.60;15.40;;;19.90;99.90;;;;;;5074473;28;20084;-92
2021/09/11 11:49:58;;;;;;;26.08;15.13;;;20.00;99.90;;;;;;5071385;28;20052;-93
2021/09/11 11:52:24;;;;;;;26.50;15.45;;;20.10;99.90;;;;;;5072912;28;20059;-93
2021/09/11 11:54:51;;;;;;;25.90;14.90;;;20.20;99.90;;;;;;5058209;28;20052;-92
2021/09/11 11:57:20;;;;;;;28.23;16.38;;;20.30;99.90;;;;;;5070914;28;20548;-92
2021/09/11 12:00:00;;;;;;;19.70;13.45;;;20.40;99.90;;;;;;5078509;28;20166;-92
2021/09/11 12:02:34;;;;;;;29.85;13.82;;;20.70;99.90;;;;;;5048705;28;20048;-93
2021/09/11 12:05:26;;;;;;;24.02;14.82;;;20.80;99.90;;;;;;5053495;28;20087;-92
2021/09/11 12:07:54;;;;;;;26.67;14.18;;;20.90;99.90;;;;;;5106654;28;20108;-92
2021/09/11 12:10:21;;;;;;;28.95;13.15;;;21.10;99.90;;;;;;5085646;28;20534;-92
2021/09/11 12:12:53;;;;;;;26.75;13.98;;;21.10;99.90;;;;;;5107822;28;20122;-93
2021/09/11 12:15:22;;;;;;;21.67;12.73;;;21.30;99.90;;;;;;5126541;27;20082;-93
2021/09/11 12:18:15;;;;;;;22.17;12.47;;;21.40;99.90;;;;;;5109263;28;20055;-93
2021/09/11 12:20:52;;;;;;;19.17;11.65;;;21.50;99.90;;;;;;5082337;28;20354;-92
2021/09/11 12:23:20;;;;;;;20.08;12.25;;;21.50;99.90;;;;;;5027798;28;20086;-92
2021/09/11 12:25:51;;;;;;;16.92;11.45;;;21.60;99.90;;;;;;5069822;28;20052;-92
2021/09/11 12:28:37;;;;;;;18.15;11.27;;;21.70;99.90;;;;;;5098754;27;20046;-92
2021/09/11 12:31:05;;;;;;;20.00;11.00;;;21.80;99.90;;;;;;5059581;28;20056;-92